Time;durP1;ratioP1;P1;durP2;ratioP2;P2;SDS_P1;SDS_P2;PMS_P1;PMS_P2;Temp;Humidity;BMP_temperature;BMP_pressure;BME280_temperature;BME280_humidity;BME280_pressure;Samples;Min_cycle;Max_cycle;Signal;HPM_P1;HPM_P2
2021/05/18 00:00:45;;;;;;;2.58;0.80;;;15.40;65.40;;;;;;5065490;28;20111;-72
2021/05/18 00:03:16;;;;;;;2.40;0.85;;;15.40;65.50;;;;;;5071114;28;20497;-72
2021/05/18 00:05:50;;;;;;;1.13;0.70;;;15.40;65.50;;;;;;5068117;28;20048;-72
2021/05/18 00:08:19;;;;;;;2.97;0.70;;;15.40;65.50;;;;;;5065647;28;20036;-68
2021/05/18 00:13:40;;;;;;;4.32;0.73;;;15.30;65.60;;;;;;5067912;28;20562;-73
2021/05/18 00:16:08;;;;;;;2.28;0.82;;;15.30;65.70;;;;;;5068917;28;20383;-73
2021/05/18 00:18:36;;;;;;;1.75;0.85;;;15.30;65.90;;;;;;5068389;28;20016;-73
2021/05/18 00:21:05;;;;;;;0.82;0.50;;;15.30;65.90;;;;;;5065678;28;20024;-72
2021/05/18 00:23:32;;;;;;;3.15;0.80;;;15.20;65.90;;;;;;5067315;28;20368;-71
2021/05/18 00:25:59;;;;;;;3.78;0.70;;;15.20;66.00;;;;;;5066317;28;20035;-71
2021/05/18 00:28:26;;;;;;;3.13;0.98;;;15.30;66.10;;;;;;5068958;28;20109;-73
2021/05/18 00:30:52;;;;;;;1.70;0.50;;;15.30;66.20;;;;;;5063802;28;20031;-74
2021/05/18 00:33:58;;;;;;;0.88;0.70;;;15.30;66.20;;;;;;5063235;28;20036;-74
2021/05/18 00:36:25;;;;;;;3.25;0.98;;;15.20;66.10;;;;;;5063347;28;20024;-73
2021/05/18 00:38:52;;;;;;;3.33;1.10;;;15.20;66.10;;;;;;5066242;28;20071;-74
2021/05/18 00:41:18;;;;;;;4.35;1.17;;;15.20;66.10;;;;;;5072882;28;20031;-74
2021/05/18 00:43:45;;;;;;;1.30;1.20;;;15.20;66.00;;;;;;5063141;28;20036;-74
2021/05/18 00:46:12;;;;;;;1.15;0.85;;;15.20;66.10;;;;;;5074537;28;20111;-73
2021/05/18 00:48:39;;;;;;;3.60;0.82;;;15.20;66.10;;;;;;5063345;28;20043;-72
2021/05/18 00:51:10;;;;;;;4.10;1.00;;;15.10;66.10;;;;;;5069607;28;20028;-73
2021/05/18 00:53:40;;;;;;;2.17;1.02;;;15.10;66.10;;;;;;5066975;28;20593;-74
2021/05/18 00:56:34;;;;;;;3.00;1.45;;;15.10;66.10;;;;;;5069537;28;20523;-75
2021/05/18 00:59:04;;;;;;;3.92;2.92;;;15.10;66.10;;;;;;5065348;28;20711;-67
2021/05/18 01:01:32;;;;;;;3.05;1.00;;;15.10;66.10;;;;;;5058870;28;20035;-74
2021/05/18 01:04:00;;;;;;;0.98;0.70;;;15.10;66.00;;;;;;5062880;28;20043;-73
2021/05/18 01:06:30;;;;;;;1.80;1.10;;;15.10;66.00;;;;;;5067030;28;20086;-74
2021/05/18 01:09:11;;;;;;;3.13;0.95;;;15.10;66.00;;;;;;5064009;28;20024;-72
2021/05/18 01:11:40;;;;;;;2.75;1.10;;;15.00;65.90;;;;;;5061046;28;20025;-73
2021/05/18 01:14:15;;;;;;;4.05;1.13;;;15.00;65.90;;;;;;5081987;28;20091;-73
2021/05/18 01:16:45;;;;;;;1.58;1.15;;;15.00;65.80;;;;;;5068364;28;20024;-72
2021/05/18 01:19:13;;;;;;;1.73;1.05;;;15.00;65.70;;;;;;5066445;28;20036;-73
2021/05/18 01:21:39;;;;;;;1.70;1.00;;;15.00;65.70;;;;;;5065118;28;20013;-74
2021/05/18 01:24:07;;;;;;;1.60;1.10;;;15.00;65.70;;;;;;5064307;28;20141;-75
2021/05/18 01:26:35;;;;;;;1.17;0.88;;;14.90;65.70;;;;;;5064441;28;20020;-74
2021/05/18 01:29:03;;;;;;;1.90;1.20;;;14.90;65.70;;;;;;5068849;28;20020;-73
2021/05/18 01:31:31;;;;;;;5.72;1.40;;;15.00;65.70;;;;;;5059738;28;20095;-72
2021/05/18 01:34:01;;;;;;;1.80;0.90;;;14.90;65.60;;;;;;5065921;28;20124;-72
2021/05/18 01:36:28;;;;;;;1.17;1.02;;;14.90;65.50;;;;;;5064114;28;20039;-74
2021/05/18 01:44:18;;;;;;;3.10;1.30;;;14.90;65.50;;;;;;5061514;28;20044;-75
2021/05/18 01:46:46;;;;;;;3.72;0.95;;;14.90;65.50;;;;;;5069125;28;20467;-74
2021/05/18 01:49:17;;;;;;;1.55;0.98;;;14.90;65.50;;;;;;5069917;28;20052;-75
2021/05/18 01:51:47;;;;;;;3.03;0.98;;;14.90;65.50;;;;;;5066687;28;20059;-75
2021/05/18 01:54:28;;;;;;;2.60;0.80;;;14.80;65.40;;;;;;5059184;28;20023;-76
2021/05/18 01:59:29;;;;;;;3.85;1.20;;;14.80;65.50;;;;;;5067401;28;20021;-74
2021/05/18 02:01:59;;;;;;;2.70;1.73;;;14.80;65.40;;;;;;5059550;28;20021;-73
2021/05/18 02:04:42;;;;;;;1.58;0.80;;;14.80;65.50;;;;;;5066793;28;20028;-72
2021/05/18 02:07:31;;;;;;;2.05;0.70;;;14.80;65.50;;;;;;5062428;28;20082;-73
2021/05/18 02:09:58;;;;;;;1.88;1.00;;;14.70;65.50;;;;;;5065715;28;20056;-73
2021/05/18 02:12:25;;;;;;;5.57;0.85;;;14.80;65.50;;;;;;5068190;28;20017;-71
2021/05/18 02:15:01;;;;;;;2.50;0.85;;;14.80;65.50;;;;;;5067839;28;20036;-72
2021/05/18 02:17:44;;;;;;;2.55;1.20;;;14.70;65.50;;;;;;5067284;28;20078;-72
2021/05/18 02:20:38;;;;;;;2.92;1.40;;;14.80;65.50;;;;;;5064395;28;20031;-72
2021/05/18 02:25:43;;;;;;;2.17;1.10;;;14.70;65.50;;;;;;5067195;28;20510;-72
2021/05/18 02:28:09;;;;;;;3.20;1.25;;;14.70;65.40;;;;;;5061877;28;20040;-73
2021/05/18 02:30:37;;;;;;;3.17;1.52;;;14.70;65.50;;;;;;5066833;28;20025;-73
2021/05/18 02:33:04;;;;;;;5.50;2.33;;;14.70;65.60;;;;;;5063892;28;20016;-73
2021/05/18 02:35:32;;;;;;;2.42;1.75;;;14.60;65.50;;;;;;5047841;28;20069;-72
2021/05/18 02:37:59;;;;;;;2.70;1.85;;;14.60;65.50;;;;;;5064876;28;20025;-73
2021/05/18 02:40:29;;;;;;;5.30;1.92;;;14.60;65.60;;;;;;5070395;28;20105;-73
2021/05/18 02:42:56;;;;;;;2.17;1.70;;;14.60;65.70;;;;;;5068906;28;20490;-73
2021/05/18 02:45:32;;;;;;;2.22;2.03;;;14.60;65.60;;;;;;5068159;28;20036;-74
2021/05/18 02:50:44;;;;;;;1.45;1.30;;;14.60;65.50;;;;;;5073209;28;20539;-74
2021/05/18 02:53:11;;;;;;;2.22;1.42;;;14.60;65.50;;;;;;5067728;28;20404;-68
2021/05/18 02:58:19;;;;;;;2.17;1.20;;;14.60;65.40;;;;;;5066345;28;20024;-74
2021/05/18 03:00:46;;;;;;;1.08;0.80;;;14.50;65.20;;;;;;5070477;28;20021;-74
2021/05/18 03:03:13;;;;;;;2.58;1.00;;;14.50;65.20;;;;;;5062930;28;20088;-74
2021/05/18 03:05:39;;;;;;;3.38;0.80;;;14.50;65.20;;;;;;5066269;28;20082;-72
2021/05/18 03:08:06;;;;;;;4.85;1.00;;;14.50;65.30;;;;;;5068743;28;20047;-74
2021/05/18 03:10:33;;;;;;;3.53;1.38;;;14.50;65.30;;;;;;5067454;28;20024;-73
2021/05/18 03:13:02;;;;;;;2.88;0.85;;;14.50;65.30;;;;;;5065615;28;20040;-72
2021/05/18 03:15:30;;;;;;;1.10;1.00;;;14.50;65.30;;;;;;5064773;28;20074;-71
2021/05/18 03:17:58;;;;;;;6.40;1.17;;;14.50;65.30;;;;;;5072771;28;20625;-70
2021/05/18 03:20:25;;;;;;;2.85;0.82;;;14.40;65.30;;;;;;5066467;28;20150;-70
2021/05/18 03:22:53;;;;;;;2.75;1.15;;;14.40;65.40;;;;;;5069969;28;20016;-72
2021/05/18 03:25:20;;;;;;;4.63;1.13;;;14.40;65.40;;;;;;5052301;28;20041;-72
2021/05/18 03:27:46;;;;;;;1.52;1.23;;;14.40;65.40;;;;;;5065252;28;20024;-73
2021/05/18 03:30:21;;;;;;;2.97;1.50;;;14.40;65.50;;;;;;5067336;28;20107;-70
2021/05/18 03:35:34;;;;;;;1.85;1.15;;;14.40;65.60;;;;;;5059618;28;20114;-69
2021/05/18 03:38:05;;;;;;;3.42;2.20;;;14.40;65.70;;;;;;5068887;28;20032;-70
2021/05/18 03:40:32;;;;;;;3.53;1.40;;;14.40;65.70;;;;;;5068611;28;20024;-70
2021/05/18 03:43:12;;;;;;;6.40;1.70;;;14.40;65.70;;;;;;5069279;28;20017;-70
2021/05/18 03:45:43;;;;;;;2.75;1.40;;;14.40;65.70;;;;;;5066204;28;20169;-71
2021/05/18 03:52:23;;;;;;;2.88;2.50;;;14.40;65.80;;;;;;5065746;28;20411;-70
2021/05/18 04:04:23;;;;;;;4.15;3.50;;;14.30;65.90;;;;;;5064040;28;20043;-75
2021/05/18 04:23:16;;;;;;;6.70;4.20;;;14.10;66.10;;;;;;5069918;28;20171;-71
2021/05/18 04:25:59;;;;;;;4.38;3.10;;;14.10;66.10;;;;;;5066788;28;20458;-71
2021/05/18 04:50:19;;;;;;;3.58;2.00;;;14.10;66.50;;;;;;5069393;28;20538;-69
2021/05/18 05:00:50;;;;;;;3.05;2.10;;;14.10;67.00;;;;;;5060533;28;20039;-73
2021/05/18 05:06:17;;;;;;;4.88;1.92;;;14.10;67.20;;;;;;5060507;28;20018;-71
2021/05/18 05:16:24;;;;;;;2.75;2.25;;;14.10;67.30;;;;;;5061548;28;20120;-72
2021/05/18 05:18:51;;;;;;;4.85;2.40;;;14.10;67.40;;;;;;5062153;28;20028;-72
2021/05/18 05:21:26;;;;;;;3.38;1.70;;;14.10;67.40;;;;;;5058345;28;20024;-73
2021/05/18 05:23:52;;;;;;;4.07;2.50;;;14.10;67.50;;;;;;5059542;28;20053;-72
2021/05/18 05:26:19;;;;;;;4.38;2.22;;;14.10;67.60;;;;;;5058138;28;20388;-73
2021/05/18 05:28:46;;;;;;;3.05;1.75;;;14.10;67.70;;;;;;5058684;28;20020;-67
2021/05/18 05:31:12;;;;;;;3.42;1.67;;;14.10;67.80;;;;;;5055195;28;20048;-72
2021/05/18 05:33:40;;;;;;;4.70;1.60;;;14.10;68.50;;;;;;5058918;28;20017;-73
2021/05/18 05:36:06;;;;;;;6.45;3.15;;;14.10;67.80;;;;;;5055764;28;20458;-72
2021/05/18 05:38:33;;;;;;;2.92;2.22;;;14.10;68.00;;;;;;5063639;28;20087;-71
2021/05/18 05:41:00;;;;;;;2.53;2.13;;;14.10;68.10;;;;;;5061898;28;21047;-72
2021/05/18 05:43:26;;;;;;;6.28;2.28;;;14.10;68.10;;;;;;5063668;28;20119;-73
2021/05/18 05:45:53;;;;;;;4.70;2.70;;;14.10;68.20;;;;;;5067006;28;20017;-73
2021/05/18 05:48:20;;;;;;;4.90;2.80;;;14.10;68.30;;;;;;5065994;28;20483;-73
2021/05/18 05:50:48;;;;;;;4.88;2.83;;;14.10;68.30;;;;;;5059662;28;20005;-73
2021/05/18 05:53:15;;;;;;;7.10;3.42;;;14.00;68.30;;;;;;5052949;28;20499;-72
2021/05/18 05:55:42;;;;;;;4.47;3.17;;;14.10;68.40;;;;;;5063384;28;20086;-69
2021/05/18 05:58:09;;;;;;;3.53;2.30;;;14.10;68.50;;;;;;5062208;28;20494;-72
2021/05/18 06:00:35;;;;;;;2.97;2.38;;;14.10;68.60;;;;;;5062737;28;20017;-73
2021/05/18 06:03:01;;;;;;;3.55;2.60;;;14.10;68.70;;;;;;5069102;28;20028;-72
2021/05/18 06:05:28;;;;;;;4.28;2.40;;;14.10;68.90;;;;;;5062038;28;20052;-72
2021/05/18 06:07:54;;;;;;;3.50;2.33;;;14.10;69.00;;;;;;5066223;28;20017;-71
2021/05/18 06:10:26;;;;;;;4.68;2.20;;;14.10;69.10;;;;;;5065159;28;20032;-73
2021/05/18 06:50:39;;;;;;;6.88;3.53;;;14.20;71.10;;;;;;5066528;28;20428;-73
2021/05/18 06:52:47;;;;;;;8.27;3.65;;;14.20;71.40;;;;;;5051375;28;20036;-66
2021/05/18 06:55:20;;;;;;;10.82;4.00;;;14.20;71.60;;;;;;5065640;28;20043;-68
2021/05/18 06:57:54;;;;;;;5.82;3.90;;;14.20;71.70;;;;;;5069664;28;20150;-71
2021/05/18 07:00:21;;;;;;;9.13;4.60;;;14.20;71.70;;;;;;5063412;28;20057;-65
2021/05/18 07:02:52;;;;;;;8.30;3.85;;;14.20;71.90;;;;;;5066002;28;20049;-71
2021/05/18 07:07:50;;;;;;;15.90;5.53;;;14.30;72.10;;;;;;5063907;28;20028;-73
2021/05/18 07:10:16;;;;;;;16.73;5.75;;;14.30;72.20;;;;;;5063437;28;20490;-72
2021/05/18 07:12:43;;;;;;;11.85;5.45;;;14.30;72.10;;;;;;5062507;28;20021;-73
2021/05/18 07:15:10;;;;;;;5.97;4.80;;;14.30;72.10;;;;;;5063786;28;20020;-73
2021/05/18 07:17:37;;;;;;;9.88;4.63;;;14.40;72.20;;;;;;5060056;28;20017;-71
2021/05/18 07:20:04;;;;;;;13.80;4.70;;;14.40;72.50;;;;;;5065180;28;20095;-73
2021/05/18 07:22:30;;;;;;;8.38;3.97;;;14.40;72.60;;;;;;5068552;28;20442;-73
2021/05/18 07:24:57;;;;;;;6.45;4.40;;;14.40;72.70;;;;;;5067978;28;20048;-74
2021/05/18 07:27:23;;;;;;;11.63;5.47;;;14.40;72.80;;;;;;5068967;28;20020;-72
2021/05/18 07:29:50;;;;;;;7.60;4.95;;;14.50;73.10;;;;;;5070956;28;20043;-71
2021/05/18 07:32:16;;;;;;;9.45;4.13;;;14.50;73.10;;;;;;5067935;28;20063;-72
2021/05/18 07:34:43;;;;;;;13.75;5.93;;;14.50;73.30;;;;;;5068808;28;20375;-72
2021/05/18 07:37:09;;;;;;;11.57;6.00;;;14.60;73.40;;;;;;5071673;28;20032;-74
2021/05/18 07:39:36;;;;;;;11.32;5.47;;;14.60;73.50;;;;;;5061924;28;20027;-72
2021/05/18 07:42:02;;;;;;;8.13;5.25;;;14.60;73.60;;;;;;5070008;28;20024;-71
2021/05/18 07:44:28;;;;;;;12.05;5.57;;;14.60;73.70;;;;;;5063166;28;20507;-69
2021/05/18 07:46:55;;;;;;;9.65;5.07;;;14.70;73.60;;;;;;5067026;28;20449;-71
2021/05/18 07:49:31;;;;;;;11.27;5.40;;;14.70;73.70;;;;;;5070408;28;20020;-73
2021/05/18 08:05:34;;;;;;;16.23;6.20;;;15.00;73.90;;;;;;5070393;28;20036;-72
2021/05/18 08:08:01;;;;;;;16.38;5.20;;;15.10;74.00;;;;;;5069705;28;20454;-70
2021/05/18 08:12:57;;;;;;;15.35;5.20;;;15.10;74.20;;;;;;5071903;28;20031;-72
2021/05/18 10:35:09;;;;;;;10.00;1.85;;;18.50;61.10;;;;;;5068037;28;20029;-65
2021/05/18 10:37:33;;;;;;;2.28;1.35;;;18.60;60.30;;;;;;5048809;28;20040;-71
2021/05/18 10:40:24;;;;;;;2.53;1.08;;;18.70;60.70;;;;;;5068223;28;20024;-73
2021/05/18 10:43:30;;;;;;;3.10;1.40;;;18.80;60.60;;;;;;5068766;28;20036;-69
2021/05/18 10:46:02;;;;;;;3.30;2.25;;;18.80;60.40;;;;;;5062517;28;20044;-69
2021/05/18 10:48:37;;;;;;;2.83;0.90;;;18.90;60.20;;;;;;5067136;28;20070;-71
2021/05/18 10:51:22;;;;;;;4.93;0.82;;;19.00;59.70;;;;;;5067104;28;20063;-74
2021/05/18 10:54:08;;;;;;;2.60;1.10;;;19.00;59.70;;;;;;5066271;28;20158;-68
2021/05/18 10:56:53;;;;;;;;;;;19.10;59.30;;;;;;5071650;28;20111;-70
2021/05/18 10:59:20;;;;;;;1.98;1.00;;;19.10;58.30;;;;;;5068796;28;19908;-70
2021/05/18 11:01:48;;;;;;;4.18;0.88;;;19.10;57.80;;;;;;5067953;28;20108;-73
2021/05/18 11:04:15;;;;;;;2.58;1.10;;;19.10;57.50;;;;;;5071513;28;20035;-73
2021/05/18 11:07:03;;;;;;;0.95;0.52;;;19.20;57.40;;;;;;5072284;28;20052;-68
2021/05/18 11:09:30;;;;;;;0.82;0.80;;;19.20;56.50;;;;;;5072168;28;20417;-71
2021/05/18 11:12:13;;;;;;;0.75;0.50;;;19.20;56.10;;;;;;5071993;28;20025;-73
2021/05/18 11:14:53;;;;;;;0.90;0.73;;;19.20;55.70;;;;;;5066400;28;20028;-66
2021/05/18 11:17:21;;;;;;;5.95;1.50;;;19.20;54.80;;;;;;5067787;28;20028;-70
2021/05/18 11:20:02;;;;;;;3.20;0.93;;;19.20;54.60;;;;;;5070952;28;20527;-74
2021/05/18 11:25:29;;;;;;;2.15;0.70;;;19.30;54.10;;;;;;5062985;28;20064;-72
2021/05/18 11:28:09;;;;;;;0.93;0.63;;;19.30;54.10;;;;;;5064611;28;20024;-70
2021/05/18 11:30:36;;;;;;;1.75;0.47;;;19.40;54.50;;;;;;5070961;28;20021;-67
2021/05/18 11:33:03;;;;;;;0.77;0.47;;;19.40;53.70;;;;;;5068927;28;20023;-70
2021/05/18 11:35:30;;;;;;;2.47;0.80;;;19.40;53.30;;;;;;5067826;28;20099;-71
2021/05/18 11:38:06;;;;;;;1.20;0.40;;;19.50;53.30;;;;;;5064359;28;20024;-70
2021/05/18 11:40:52;;;;;;;1.63;0.55;;;19.60;53.30;;;;;;5063190;28;20025;-72
2021/05/18 11:43:23;;;;;;;1.45;0.40;;;19.60;53.10;;;;;;5068491;28;20499;-75
2021/05/18 11:46:01;;;;;;;1.90;0.50;;;19.60;53.10;;;;;;5047437;28;20032;-75
2021/05/18 11:48:28;;;;;;;1.65;0.47;;;19.60;53.00;;;;;;5072143;28;20028;-70
2021/05/18 11:51:21;;;;;;;0.98;0.50;;;19.60;52.80;;;;;;5069465;28;20016;-71
2021/05/18 11:53:52;;;;;;;4.68;0.47;;;19.70;52.80;;;;;;5065819;28;20043;-73
2021/05/18 11:56:33;;;;;;;1.30;0.60;;;19.80;52.40;;;;;;5063369;28;20484;-67
2021/05/18 11:59:02;;;;;;;1.98;0.70;;;19.80;52.50;;;;;;5067118;28;20024;-73
2021/05/18 12:01:30;;;;;;;0.50;0.32;;;19.80;52.10;;;;;;5067294;28;20016;-68
2021/05/18 12:04:11;;;;;;;2.03;0.60;;;19.80;52.30;;;;;;5063409;28;20353;-72
2021/05/18 12:06:52;;;;;;;3.38;0.50;;;19.80;52.00;;;;;;5069629;28;20032;-74
2021/05/18 12:09:19;;;;;;;3.03;0.60;;;19.90;52.10;;;;;;5072044;28;20093;-70
2021/05/18 12:11:58;;;;;;;2.35;0.52;;;19.90;51.90;;;;;;5067327;28;20016;-67
2021/05/18 12:14:25;;;;;;;1.52;0.45;;;20.00;51.90;;;;;;5065118;28;20028;-70
2021/05/18 12:16:52;;;;;;;1.40;0.45;;;19.90;51.70;;;;;;5061431;28;20549;-72
2021/05/18 12:19:20;;;;;;;1.80;1.65;;;20.00;51.40;;;;;;5065239;28;20028;-74
2021/05/18 12:21:49;;;;;;;3.08;0.40;;;20.00;51.30;;;;;;5066932;28;20024;-73
2021/05/18 12:24:17;;;;;;;1.75;0.47;;;20.10;51.10;;;;;;5061733;28;20048;-69
2021/05/18 12:26:56;;;;;;;0.93;0.38;;;20.10;51.30;;;;;;5061206;28;20100;-72
2021/05/18 12:29:35;;;;;;;0.82;0.70;;;20.10;51.20;;;;;;5066002;28;20021;-69
2021/05/18 12:32:26;;;;;;;1.27;0.57;;;20.10;51.10;;;;;;5070628;28;20035;-66
2021/05/18 12:35:17;;;;;;;1.45;0.47;;;20.20;50.90;;;;;;5068093;28;20031;-74
2021/05/18 12:37:47;;;;;;;1.20;0.40;;;20.30;51.10;;;;;;5063320;28;20040;-67
2021/05/18 12:40:33;;;;;;;0.45;0.40;;;20.30;50.80;;;;;;5069491;28;20086;-71
2021/05/18 12:43:10;;;;;;;1.17;0.40;;;20.30;50.40;;;;;;5065921;28;20024;-69
2021/05/18 12:45:37;;;;;;;1.02;0.30;;;20.40;50.70;;;;;;5069432;28;20039;-73
2021/05/18 12:48:04;;;;;;;2.20;0.38;;;20.40;50.60;;;;;;5067879;28;20016;-68
2021/05/18 12:50:46;;;;;;;1.00;0.30;;;20.40;50.40;;;;;;5059092;28;20542;-71
2021/05/18 12:53:27;;;;;;;0.65;0.35;;;20.50;50.20;;;;;;5062144;28;20029;-69
2021/05/18 12:55:55;;;;;;;1.08;0.40;;;20.50;50.20;;;;;;5062343;28;20506;-69
2021/05/18 12:58:32;;;;;;;1.73;0.95;;;20.60;50.70;;;;;;5067134;28;20032;-71
2021/05/18 13:01:17;;;;;;;0.40;0.30;;;20.60;49.90;;;;;;5068687;28;20031;-71
2021/05/18 13:03:44;;;;;;;0.38;0.22;;;20.60;49.40;;;;;;5066645;28;20040;-74
2021/05/18 13:06:12;;;;;;;0.43;0.35;;;20.60;49.40;;;;;;5065640;28;20475;-74
2021/05/18 13:08:40;;;;;;;2.95;0.88;;;20.60;49.30;;;;;;5061945;28;20023;-75
2021/05/18 13:13:56;;;;;;;2.22;0.20;;;20.60;48.70;;;;;;5064875;28;20459;-69
2021/05/18 13:16:42;;;;;;;1.80;0.40;;;20.60;48.60;;;;;;5068539;28;20016;-75
2021/05/18 13:19:13;;;;;;;3.53;0.30;;;20.60;48.70;;;;;;5068213;28;20024;-73
2021/05/18 13:21:49;;;;;;;2.33;0.40;;;20.50;48.60;;;;;;5058883;28;20017;-73
2021/05/18 13:26:51;;;;;;;1.33;0.30;;;20.50;47.90;;;;;;5066766;28;20036;-73
2021/05/18 13:29:19;;;;;;;2.17;0.35;;;20.60;48.00;;;;;;5067562;28;20021;-71
2021/05/18 13:31:49;;;;;;;0.52;0.30;;;20.60;48.10;;;;;;5056917;28;20009;-73
2021/05/18 13:34:16;;;;;;;0.25;0.20;;;20.50;48.00;;;;;;5063655;28;20025;-70
2021/05/18 13:36:44;;;;;;;0.82;0.22;;;20.60;48.10;;;;;;5061676;28;20059;-73
2021/05/18 13:39:13;;;;;;;0.43;0.20;;;20.60;48.00;;;;;;5063148;28;20096;-71
2021/05/18 13:41:40;;;;;;;0.95;0.20;;;20.50;48.00;;;;;;5068917;28;20020;-73
2021/05/18 13:44:07;;;;;;;1.75;0.40;;;20.60;48.00;;;;;;5069052;28;20373;-75
2021/05/18 13:46:36;;;;;;;1.85;0.40;;;20.50;48.20;;;;;;5065481;28;20077;-72
2021/05/18 13:49:03;;;;;;;0.38;0.30;;;20.50;47.80;;;;;;5068134;28;20036;-73
2021/05/18 13:51:30;;;;;;;0.45;0.35;;;20.50;47.90;;;;;;5067376;28;20017;-72
2021/05/18 13:53:57;;;;;;;1.85;0.30;;;20.50;47.80;;;;;;5065664;28;20540;-72
2021/05/18 13:56:24;;;;;;;1.80;0.20;;;20.50;47.70;;;;;;5066148;28;20086;-68
2021/05/18 13:58:54;;;;;;;0.77;0.32;;;20.50;47.70;;;;;;5063142;28;20025;-73
2021/05/18 14:01:22;;;;;;;0.90;0.35;;;20.40;47.60;;;;;;5062698;28;20020;-69
2021/05/18 14:03:49;;;;;;;0.52;0.20;;;20.40;47.50;;;;;;5067852;28;20047;-72
2021/05/18 14:06:16;;;;;;;0.63;0.28;;;20.40;47.40;;;;;;5062273;28;20017;-74
2021/05/18 14:08:44;;;;;;;2.50;0.20;;;20.40;47.40;;;;;;5065663;28;20082;-69
2021/05/18 14:11:19;;;;;;;1.85;1.65;;;20.30;47.60;;;;;;5065252;28;20029;-71
2021/05/18 14:13:54;;;;;;;0.77;0.68;;;20.30;47.70;;;;;;5060263;28;20017;-71
2021/05/18 14:16:22;;;;;;;1.10;0.17;;;20.20;47.80;;;;;;5062452;28;20017;-73
2021/05/18 14:18:53;;;;;;;0.73;0.20;;;20.20;48.10;;;;;;5067748;28;20380;-73
2021/05/18 14:21:22;;;;;;;1.27;0.20;;;20.10;47.70;;;;;;5066777;28;20017;-71
2021/05/18 14:26:19;;;;;;;0.52;0.52;;;20.00;48.10;;;;;;5063437;28;20480;-73
2021/05/18 14:28:46;;;;;;;1.80;0.80;;;20.00;48.20;;;;;;5082903;28;20343;-73
2021/05/18 14:31:14;;;;;;;0.75;0.52;;;19.90;48.20;;;;;;5066358;28;20009;-73
2021/05/18 14:33:41;;;;;;;0.17;0.17;;;19.90;48.30;;;;;;5067046;28;20021;-74
2021/05/18 14:36:09;;;;;;;1.75;0.52;;;19.90;48.60;;;;;;5068037;28;20020;-72
2021/05/18 14:39:23;;;;;;;0.47;0.40;;;19.80;49.20;;;;;;5064233;28;20494;-72
2021/05/18 14:44:34;;;;;;;1.83;0.88;;;19.70;49.30;;;;;;5068529;28;20449;-70
2021/05/18 14:55:16;;;;;;;8.45;3.80;;;19.50;50.10;;;;;;5064434;28;20078;-73
2021/05/18 14:57:43;;;;;;;7.88;5.53;;;19.50;50.50;;;;;;5073537;28;20364;-71
2021/05/18 15:00:49;;;;;;;4.40;2.97;;;19.50;51.00;;;;;;5073078;28;20074;-69
2021/05/18 15:03:15;;;;;;;4.20;2.60;;;19.40;51.20;;;;;;5069891;28;20044;-69
2021/05/18 15:05:42;;;;;;;14.02;8.68;;;19.40;51.10;;;;;;5070468;28;20052;-70
2021/05/18 15:08:09;;;;;;;11.70;7.55;;;19.40;51.00;;;;;;5052760;28;20024;-70
2021/05/18 15:10:36;;;;;;;4.35;3.30;;;19.30;51.30;;;;;;5071573;28;20052;-68
2021/05/18 15:13:03;;;;;;;5.30;3.25;;;19.30;51.30;;;;;;5069889;28;20019;-68
2021/05/18 15:15:30;;;;;;;5.53;2.33;;;19.20;51.70;;;;;;5069170;28;20026;-69
2021/05/18 15:17:58;;;;;;;7.78;3.22;;;19.30;52.00;;;;;;5071032;28;20503;-69
2021/05/18 15:20:26;;;;;;;5.47;2.30;;;19.20;52.30;;;;;;5062280;28;20426;-71
2021/05/18 15:22:52;;;;;;;4.90;2.90;;;19.20;52.60;;;;;;5069777;28;20059;-68
2021/05/18 15:25:23;;;;;;;36.67;27.80;;;19.20;52.80;;;;;;5067628;28;20418;-76
2021/05/18 15:27:49;;;;;;;12.43;11.02;;;19.20;53.00;;;;;;5069924;28;20016;-72
2021/05/18 15:30:16;;;;;;;11.40;6.70;;;19.10;53.10;;;;;;5067071;28;20459;-71
2021/05/18 15:32:42;;;;;;;8.60;5.82;;;19.10;53.60;;;;;;5068449;28;20033;-74
2021/05/18 15:35:10;;;;;;;12.60;10.60;;;19.10;53.20;;;;;;5065515;28;20016;-71
2021/05/18 15:37:37;;;;;;;15.57;12.38;;;19.10;52.40;;;;;;5066613;28;20464;-71
2021/05/18 15:40:04;;;;;;;16.33;9.95;;;19.00;51.70;;;;;;5067928;28;20028;-71
2021/05/18 15:42:31;;;;;;;13.05;7.00;;;19.00;51.90;;;;;;5070787;28;20063;-70
2021/05/18 15:44:58;;;;;;;8.23;3.25;;;18.90;52.00;;;;;;5070153;28;20033;-70
2021/05/18 15:47:26;;;;;;;6.40;3.50;;;18.90;52.10;;;;;;5065773;28;20027;-72
2021/05/18 15:49:53;;;;;;;5.93;3.10;;;18.90;52.10;;;;;;5059998;28;20036;-67
2021/05/18 15:52:19;;;;;;;2.67;1.98;;;18.80;52.30;;;;;;5064715;28;20100;-75
2021/05/18 15:54:45;;;;;;;8.35;3.25;;;18.80;52.40;;;;;;5070705;28;20376;-75
2021/05/18 15:57:52;;;;;;;65.63;9.23;;;18.80;52.60;;;;;;5062361;28;20468;-71
2021/05/18 16:00:58;;;;;;;3.53;2.05;;;18.80;53.70;;;;;;5066588;28;20025;-70
2021/05/18 16:04:04;;;;;;;4.80;2.35;;;18.80;52.60;;;;;;5071724;28;20467;-69
2021/05/18 16:07:13;;;;;;;22.02;9.80;;;18.70;52.50;;;;;;5070328;28;20017;-70
2021/05/18 16:10:19;;;;;;;18.25;11.52;;;18.60;53.00;;;;;;5065870;28;20032;-68
2021/05/18 16:13:25;;;;;;;28.42;20.60;;;18.60;53.50;;;;;;5068026;28;20499;-69
2021/05/18 16:16:31;;;;;;;24.98;21.92;;;18.60;54.00;;;;;;5065261;28;20438;-68
2021/05/18 16:19:37;;;;;;;17.15;14.32;;;18.60;54.40;;;;;;5068763;28;20021;-70
2021/05/18 16:22:43;;;;;;;18.55;12.45;;;18.60;54.50;;;;;;5066655;28;20035;-70
2021/05/18 16:25:50;;;;;;;14.15;9.25;;;18.60;54.40;;;;;;5062698;28;20056;-71
2021/05/18 16:28:56;;;;;;;10.07;7.22;;;18.60;54.30;;;;;;5063550;28;20047;-71
2021/05/18 16:32:02;;;;;;;10.02;7.30;;;18.50;54.20;;;;;;5067456;28;20025;-70
2021/05/18 16:35:08;;;;;;;8.70;6.93;;;18.50;54.30;;;;;;5060998;28;20029;-72
2021/05/18 16:38:14;;;;;;;12.00;7.00;;;18.50;54.40;;;;;;5062090;28;20021;-75
2021/05/18 16:41:20;;;;;;;9.38;6.82;;;18.40;54.50;;;;;;5065338;28;20028;-75
2021/05/18 16:44:26;;;;;;;12.88;8.43;;;18.40;54.60;;;;;;5062982;28;20071;-73
2021/05/18 16:47:33;;;;;;;14.07;9.98;;;18.30;54.80;;;;;;5066757;28;20029;-73
2021/05/18 16:50:40;;;;;;;17.67;11.13;;;18.30;55.00;;;;;;5065023;28;20013;-76
2021/05/18 16:53:50;;;;;;;18.55;12.38;;;18.20;55.30;;;;;;5067776;28;20025;-76
2021/05/18 16:56:56;;;;;;;24.23;14.68;;;18.30;55.50;;;;;;5060701;28;20035;-75
2021/05/18 17:00:02;;;;;;;23.02;12.82;;;18.20;55.50;;;;;;5063473;28;20029;-76
2021/05/18 17:03:08;;;;;;;17.80;12.75;;;18.10;55.70;;;;;;5066149;28;20021;-72
2021/05/18 17:06:14;;;;;;;18.98;12.95;;;18.10;55.80;;;;;;5062143;28;20033;-72
2021/05/18 17:08:54;;;;;;;28.50;19.08;;;18.00;55.80;;;;;;5062905;28;20437;-72
2021/05/18 17:11:21;;;;;;;28.33;18.60;;;18.00;56.10;;;;;;5038463;28;20115;-71
2021/05/18 17:13:47;;;;;;;20.50;15.68;;;18.00;56.20;;;;;;5067573;28;20023;-71
2021/05/18 17:16:14;;;;;;;15.27;10.85;;;17.90;56.20;;;;;;5065099;28;20056;-68
2021/05/18 17:18:41;;;;;;;8.48;7.45;;;17.90;56.30;;;;;;5061835;28;20017;-71
2021/05/18 17:21:07;;;;;;;11.23;6.18;;;17.90;56.40;;;;;;5063718;28;20361;-70
2021/05/18 17:23:34;;;;;;;7.65;4.70;;;17.90;56.40;;;;;;5065797;28;20090;-71
2021/05/18 17:26:00;;;;;;;4.75;3.78;;;17.80;56.30;;;;;;5066590;28;20562;-71
2021/05/18 17:28:27;;;;;;;7.82;4.82;;;17.80;56.40;;;;;;5059428;28;20024;-72
2021/05/18 17:30:54;;;;;;;7.82;6.15;;;17.80;56.50;;;;;;5065879;28;20502;-71
2021/05/18 17:33:21;;;;;;;13.98;7.82;;;17.80;56.50;;;;;;5061771;28;20021;-70
2021/05/18 17:35:48;;;;;;;12.90;7.93;;;17.70;56.50;;;;;;5061852;28;20032;-71
2021/05/18 17:38:16;;;;;;;10.57;7.63;;;17.70;56.60;;;;;;5056136;28;20407;-72
2021/05/18 17:40:44;;;;;;;8.57;6.38;;;17.70;56.60;;;;;;5068046;28;20478;-71
2021/05/18 17:43:11;;;;;;;8.30;6.07;;;17.60;56.60;;;;;;5064586;28;20410;-72
2021/05/18 17:45:39;;;;;;;9.20;5.50;;;17.60;56.70;;;;;;5060436;28;21744;-70
2021/05/18 17:48:07;;;;;;;10.23;6.97;;;17.60;56.80;;;;;;5066027;28;20061;-69
2021/05/18 17:50:35;;;;;;;19.63;15.38;;;17.60;56.90;;;;;;5064448;28;20027;-71
2021/05/18 17:53:02;;;;;;;29.27;23.48;;;17.60;57.00;;;;;;5062008;28;20027;-71
2021/05/18 17:55:29;;;;;;;28.48;22.20;;;17.50;57.00;;;;;;5059674;28;20020;-70
2021/05/18 17:58:16;;;;;;;23.70;18.42;;;17.50;57.20;;;;;;5056799;28;20016;-70
2021/05/18 18:00:43;;;;;;;19.75;15.05;;;17.50;57.20;;;;;;5062296;28;20025;-69
2021/05/18 18:03:10;;;;;;;15.35;11.85;;;17.50;57.20;;;;;;5062217;28;20441;-71
2021/05/18 18:05:38;;;;;;;12.80;9.57;;;17.50;57.20;;;;;;5060948;28;20061;-71
2021/05/18 18:08:45;;;;;;;10.60;8.05;;;17.50;57.20;;;;;;5061543;28;20020;-72
2021/05/18 18:11:14;;;;;;;8.07;6.05;;;17.50;57.20;;;;;;5057812;28;20371;-71
2021/05/18 18:13:40;;;;;;;8.63;6.13;;;17.40;57.20;;;;;;5059268;28;20044;-71
2021/05/18 18:16:10;;;;;;;6.90;4.80;;;17.40;57.10;;;;;;5062297;28;20074;-71
2021/05/18 18:18:37;;;;;;;4.80;3.45;;;17.40;57.10;;;;;;5062091;28;20031;-70
2021/05/18 18:21:08;;;;;;;5.60;3.45;;;17.30;57.10;;;;;;5062006;28;20364;-71
2021/05/18 18:23:36;;;;;;;5.40;3.90;;;17.40;57.10;;;;;;5066044;28;20435;-75
2021/05/18 18:26:06;;;;;;;3.92;2.90;;;17.30;57.10;;;;;;5060144;28;20040;-72